サントメ の空港の天気 - METARとTAF

サントメ国際空港 ( FPST / TMS ) - サントメ・プリンシペ サントメ
飛行場実況気象(Metar)
観測時間07/19 00:00 WAT (07/18 23:00 UTC)
風向・風速南 8m/s
視程10km以上
天気現象
少しの雲 雲底高度 610m
全天の8割程度の雲 雲底高度 1220m
気温24℃
湿度83%
気圧1017hPa
METARFPST 182300Z 17015KT 9999 FEW020 BKN040 24/21 Q1017 NOSIG
過去の天気等 Google飛行場航空写真 Wunderground天気予報

過去48時間のMETAR

飛行場予報(TAF)
発表時間: 7/18 17:00 WAT (7/18 16:00 UTC)
予報対象時間: 18日19時 WAT ~ 19日5時 WAT
風向・風速南 5m/s
視程10km以上
全天の4割程度の雲 雲底高度 610m
全天を覆う雲 雲底高度 1220m
TAF FPST 181600Z 1818/1904 18010KT 9999 SCT020 OVC040